createdAt,value
2023-01-29T00:00:03.377Z,26.30
2023-01-29T00:02:30.031Z,26.88
2023-01-29T00:08:12.038Z,27.94
2023-01-29T00:10:38.684Z,26.79
2023-01-29T00:13:05.437Z,26.60
2023-01-29T00:15:32.015Z,26.20
2023-01-29T00:17:58.796Z,26.59
2023-01-29T00:20:25.338Z,26.91
2023-01-29T00:22:51.861Z,27.37
2023-01-29T00:25:19.333Z,26.54
2023-01-29T00:27:45.913Z,26.76
2023-01-29T00:30:12.443Z,26.86
2023-01-29T00:32:39.089Z,26.37
2023-01-29T00:35:05.872Z,25.93
2023-01-29T00:37:32.718Z,27.11
2023-01-29T00:39:59.421Z,26.70
2023-01-29T00:42:26.024Z,26.56
2023-01-29T00:44:52.461Z,26.83
2023-01-29T00:47:19.291Z,25.91
2023-01-29T00:49:48.039Z,27.27
2023-01-29T01:03:28.958Z,27.31
2023-01-29T01:06:01.069Z,26.75
2023-01-29T01:08:27.981Z,26.71
2023-01-29T01:10:54.793Z,26.37
2023-01-29T01:13:23.285Z,26.75
2023-01-29T01:15:50.031Z,26.77
2023-01-29T01:18:17.465Z,29.10
2023-01-29T01:20:44.281Z,28.65
2023-01-29T01:23:11.105Z,26.79
2023-01-29T01:25:39.811Z,25.84
2023-01-29T01:28:07.032Z,26.17
2023-01-29T01:30:33.736Z,25.78
2023-01-29T01:33:00.524Z,27.04
2023-01-29T01:35:27.130Z,27.19
2023-01-29T01:37:53.950Z,26.28
2023-01-29T01:42:49.319Z,26.95
2023-01-29T01:45:15.926Z,26.50
2023-01-29T01:47:42.803Z,26.14
2023-01-29T01:50:09.232Z,26.96
2023-01-29T01:52:37.931Z,26.91
2023-01-29T01:55:04.769Z,27.50
2023-01-29T01:57:31.363Z,26.97
2023-01-29T01:59:58.226Z,26.46
2023-01-29T02:02:27.336Z,26.19
2023-01-29T02:04:54.241Z,26.84
2023-01-29T02:07:20.806Z,27.96
2023-01-29T02:09:47.506Z,26.81
2023-01-29T02:12:14.340Z,26.66
2023-01-29T02:14:40.935Z,26.83
2023-01-29T02:17:14.803Z,27.68
2023-01-29T02:19:41.448Z,27.34
2023-01-29T02:22:08.158Z,27.54
2023-01-29T02:24:36.291Z,27.67
2023-01-29T02:27:03.221Z,27.39
2023-01-29T02:29:29.846Z,27.49
2023-01-29T02:31:56.370Z,27.42
2023-01-29T02:34:23.171Z,27.45
2023-01-29T02:36:49.699Z,28.60
2023-01-29T02:39:16.566Z,27.59
2023-01-29T02:41:45.486Z,26.76
2023-01-29T02:44:12.323Z,26.90
2023-01-29T02:46:39.003Z,27.28
2023-01-29T02:49:05.481Z,27.00
2023-01-29T02:51:34.046Z,26.21
2023-01-29T02:54:00.639Z,26.43
2023-01-29T02:56:27.188Z,26.33
2023-01-29T02:58:54.027Z,26.82
2023-01-29T03:01:20.627Z,26.78
2023-01-29T03:03:47.282Z,26.82
2023-01-29T03:06:14.148Z,26.54
2023-01-29T03:08:40.684Z,26.01
2023-01-29T03:11:07.273Z,26.50
2023-01-29T03:13:33.782Z,25.77
2023-01-29T03:16:00.650Z,26.02
2023-01-29T03:18:27.474Z,26.22
2023-01-29T03:20:54.248Z,25.73
2023-01-29T03:23:21.071Z,26.13
2023-01-29T03:25:47.961Z,25.81
2023-01-29T03:28:14.729Z,25.46
2023-01-29T03:30:41.427Z,26.09
2023-01-29T03:33:08.194Z,25.74
2023-01-29T03:35:34.704Z,25.43
2023-01-29T03:38:01.256Z,26.41
2023-01-29T03:40:28.527Z,25.86
2023-01-29T03:42:59.077Z,25.13
2023-01-29T03:45:25.637Z,25.79
2023-01-29T03:47:52.203Z,25.33
2023-01-29T03:50:19.029Z,25.30
2023-01-29T03:52:45.817Z,25.61
2023-01-29T03:55:12.501Z,25.92
2023-01-29T03:57:41.464Z,25.48
2023-01-29T04:00:08.049Z,25.49
2023-01-29T04:02:34.868Z,25.16
2023-01-29T04:05:01.730Z,25.60
2023-01-29T04:07:28.789Z,25.44
2023-01-29T04:09:56.237Z,25.07
2023-01-29T04:12:23.459Z,25.86
2023-01-29T04:14:49.987Z,26.49
2023-01-29T04:17:18.493Z,25.34
2023-01-29T04:19:45.004Z,25.63
2023-01-29T04:22:11.721Z,25.24
2023-01-29T04:24:40.703Z,26.13
2023-01-29T04:27:09.102Z,25.16
2023-01-29T04:29:35.647Z,25.37
2023-01-29T04:32:02.463Z,25.11
2023-01-29T04:34:30.042Z,25.28
2023-01-29T04:36:56.928Z,24.39
2023-01-29T04:39:23.465Z,24.78
2023-01-29T04:41:50.800Z,25.66
2023-01-29T04:44:17.425Z,25.10
2023-01-29T04:46:44.257Z,24.46
2023-01-29T04:52:27.478Z,24.70
2023-01-29T04:54:54.181Z,24.23
2023-01-29T04:57:20.885Z,24.31
2023-01-29T04:59:47.676Z,24.35
2023-01-29T05:02:14.229Z,25.01
2023-01-29T05:04:43.470Z,24.97
2023-01-29T05:07:10.310Z,25.04
2023-01-29T05:09:37.660Z,25.00
2023-01-29T05:12:04.453Z,24.51
2023-01-29T05:14:31.416Z,25.00
2023-01-29T05:16:58.031Z,25.21
2023-01-29T05:19:24.797Z,25.58
2023-01-29T05:21:52.452Z,25.37
2023-01-29T05:24:19.335Z,25.90
2023-01-29T05:26:47.826Z,25.48
2023-01-29T05:29:14.765Z,25.38
2023-01-29T05:31:41.411Z,25.86
2023-01-29T05:34:08.236Z,25.14
2023-01-29T05:36:34.895Z,24.91
2023-01-29T05:39:04.158Z,25.14
2023-01-29T05:41:30.759Z,24.44
2023-01-29T05:44:00.255Z,25.00
2023-01-29T05:46:27.439Z,24.30
2023-01-29T05:48:56.580Z,24.67
2023-01-29T05:51:23.388Z,25.36
2023-01-29T05:53:50.240Z,25.33
2023-01-29T05:56:17.157Z,25.19
2023-01-29T05:58:46.146Z,25.89
2023-01-29T06:01:13.452Z,25.84
2023-01-29T06:03:40.067Z,25.17
2023-01-29T06:06:08.995Z,25.43
2023-01-29T06:08:35.754Z,25.27
2023-01-29T06:11:02.553Z,25.23
2023-01-29T06:13:29.774Z,25.27
2023-01-29T06:15:56.450Z,25.28
2023-01-29T06:18:23.840Z,25.61
2023-01-29T06:20:50.438Z,25.17
2023-01-29T06:23:17.260Z,26.14
2023-01-29T06:25:44.063Z,25.42
2023-01-29T06:28:10.908Z,25.89
2023-01-29T06:30:39.804Z,25.58
2023-01-29T06:33:08.757Z,25.19
2023-01-29T06:35:35.584Z,25.04
2023-01-29T06:38:04.573Z,25.07
2023-01-29T06:40:32.629Z,24.81
2023-01-29T06:42:59.929Z,24.81
2023-01-29T06:45:27.031Z,25.71
2023-01-29T06:47:53.701Z,25.00
2023-01-29T06:50:20.437Z,24.72
2023-01-29T06:52:49.297Z,24.16
2023-01-29T06:55:15.995Z,24.78
2023-01-29T06:57:43.025Z,25.06
2023-01-29T07:00:09.774Z,24.83
2023-01-29T07:02:40.826Z,25.95
2023-01-29T07:05:07.574Z,25.13
2023-01-29T07:07:34.390Z,24.77
2023-01-29T07:10:01.922Z,24.45
2023-01-29T07:12:28.686Z,25.18
2023-01-29T07:14:57.621Z,25.46
2023-01-29T07:17:24.434Z,25.39
2023-01-29T07:19:51.799Z,25.28
2023-01-29T07:22:18.642Z,25.28
2023-01-29T07:24:45.209Z,25.75
2023-01-29T07:27:12.805Z,26.17
2023-01-29T07:29:39.524Z,26.04
2023-01-29T07:32:06.043Z,25.57
2023-01-29T07:34:32.896Z,25.57
2023-01-29T07:36:59.609Z,25.71
2023-01-29T07:42:15.249Z,25.58
2023-01-29T07:44:44.345Z,25.37
2023-01-29T07:47:11.046Z,25.60
2023-01-29T07:49:38.885Z,25.30
2023-01-29T07:52:05.741Z,25.12
2023-01-29T07:54:32.231Z,25.72
2023-01-29T07:57:00.924Z,26.22
2023-01-29T08:02:30.545Z,25.75
2023-01-29T08:04:57.451Z,25.81
2023-01-29T08:07:24.014Z,25.56
2023-01-29T08:09:51.352Z,25.59
2023-01-29T08:12:20.236Z,24.65
2023-01-29T08:14:46.793Z,24.36
2023-01-29T08:17:15.732Z,24.93
2023-01-29T08:19:42.376Z,24.02
2023-01-29T08:22:08.969Z,24.09
2023-01-29T08:24:47.926Z,24.00
2023-01-29T08:27:20.873Z,22.78
2023-01-29T08:29:47.739Z,22.86
2023-01-29T08:32:14.898Z,22.50
2023-01-29T08:34:41.488Z,22.99
2023-01-29T08:37:08.365Z,22.83
2023-01-29T08:39:35.186Z,22.58
2023-01-29T08:42:02.760Z,22.22
2023-01-29T08:44:34.206Z,22.58
2023-01-29T08:47:00.920Z,21.55
2023-01-29T08:49:27.623Z,22.61
2023-01-29T08:51:54.307Z,22.39
2023-01-29T08:54:23.822Z,22.26
2023-01-29T08:56:50.502Z,22.50
2023-01-29T08:59:17.305Z,22.77
2023-01-29T09:01:44.189Z,23.00
2023-01-29T09:07:12.821Z,23.05
2023-01-29T09:09:39.421Z,23.33
2023-01-29T09:12:06.032Z,22.51
2023-01-29T09:14:32.876Z,22.26
2023-01-29T09:16:59.716Z,22.56
2023-01-29T09:19:28.737Z,22.26
2023-01-29T09:21:55.814Z,22.49
2023-01-29T09:24:22.331Z,22.97
2023-01-29T09:26:50.232Z,22.46
2023-01-29T09:29:17.013Z,21.40
2023-01-29T09:31:43.708Z,22.49
2023-01-29T09:34:10.459Z,22.44
2023-01-29T09:36:39.438Z,22.38
2023-01-29T09:39:09.281Z,22.26
2023-01-29T09:41:36.108Z,28.29
2023-01-29T09:44:02.926Z,23.26
2023-01-29T09:46:29.805Z,29.64
2023-01-29T09:48:56.527Z,103.94
2023-01-29T09:51:23.435Z,24.67
2023-01-29T09:53:50.114Z,25.66
2023-01-29T09:56:17.395Z,30.96
2023-01-29T09:58:44.011Z,23.21
2023-01-29T10:01:10.687Z,23.07
2023-01-29T10:03:38.178Z,22.53
2023-01-29T10:06:04.691Z,23.04
2023-01-29T10:08:31.640Z,22.57
2023-01-29T10:10:58.370Z,22.88
2023-01-29T10:13:26.313Z,22.31
2023-01-29T10:15:52.913Z,22.11
2023-01-29T10:18:19.729Z,24.76
2023-01-29T10:20:46.397Z,23.90
2023-01-29T10:23:13.013Z,24.90
2023-01-29T10:25:39.518Z,23.08
2023-01-29T10:28:05.973Z,23.52
2023-01-29T10:30:34.961Z,22.99
2023-01-29T10:33:02.473Z,22.95
2023-01-29T10:35:29.297Z,23.32
2023-01-29T10:37:55.819Z,23.29
2023-01-29T10:40:22.367Z,23.72
2023-01-29T10:42:49.138Z,24.26
2023-01-29T10:45:16.045Z,23.08
2023-01-29T10:47:43.335Z,23.48
2023-01-29T10:50:10.109Z,23.29
2023-01-29T10:52:36.896Z,22.84
2023-01-29T10:55:03.598Z,22.74
2023-01-29T10:57:30.192Z,23.84
2023-01-29T10:59:57.226Z,24.11
2023-01-29T11:02:23.852Z,23.57
2023-01-29T11:04:51.275Z,22.76
2023-01-29T11:07:18.022Z,24.11
2023-01-29T11:09:47.478Z,23.87
2023-01-29T11:12:14.179Z,23.48
2023-01-29T11:14:41.073Z,23.37
2023-01-29T11:17:08.627Z,23.22
2023-01-29T11:19:35.144Z,23.27
2023-01-29T11:22:01.917Z,23.10
2023-01-29T11:24:28.690Z,24.00
2023-01-29T11:26:55.492Z,24.43
2023-01-29T11:29:22.209Z,24.12
2023-01-29T11:31:48.852Z,23.80
2023-01-29T11:34:15.414Z,23.89
2023-01-29T11:36:41.952Z,24.06
2023-01-29T11:39:08.767Z,23.79
2023-01-29T11:41:36.404Z,23.74
2023-01-29T11:44:03.144Z,24.45
2023-01-29T11:46:29.830Z,23.38
2023-01-29T11:48:59.265Z,24.70
2023-01-29T11:51:32.529Z,24.63
2023-01-29T11:53:59.397Z,24.93
2023-01-29T11:56:26.680Z,24.67
2023-01-29T11:58:53.433Z,24.67
2023-01-29T12:01:20.012Z,24.05
2023-01-29T12:03:46.633Z,23.67
2023-01-29T12:09:08.363Z,23.86
2023-01-29T12:11:37.232Z,24.27
2023-01-29T12:14:07.565Z,24.60
2023-01-29T12:16:34.582Z,25.22
2023-01-29T12:19:01.139Z,24.99
2023-01-29T12:21:28.711Z,24.73
2023-01-29T12:23:56.003Z,24.55
2023-01-29T12:26:22.669Z,25.19
2023-01-29T12:28:49.767Z,26.95
2023-01-29T12:31:16.326Z,25.95
2023-01-29T12:33:42.882Z,25.14
2023-01-29T12:36:10.964Z,25.26
2023-01-29T12:38:37.694Z,26.24
2023-01-29T12:41:04.206Z,26.03
2023-01-29T12:43:32.821Z,26.67
2023-01-29T12:46:00.424Z,26.06
2023-01-29T12:48:27.869Z,25.90
2023-01-29T12:50:55.347Z,26.83
2023-01-29T12:53:22.685Z,25.99
2023-01-29T12:55:49.754Z,25.04
2023-01-29T12:58:16.773Z,25.56
2023-01-29T13:00:44.161Z,26.15
2023-01-29T13:03:10.813Z,25.93
2023-01-29T13:08:55.099Z,26.64
2023-01-29T13:14:14.906Z,25.87
2023-01-29T13:19:56.579Z,25.44
2023-01-29T13:22:25.850Z,25.61
2023-01-29T13:25:04.309Z,25.20
2023-01-29T13:27:31.984Z,25.24
2023-01-29T13:29:58.504Z,26.26
2023-01-29T13:32:24.993Z,26.04
2023-01-29T13:34:51.578Z,25.11
2023-01-29T13:37:18.115Z,25.94
2023-01-29T13:39:44.615Z,25.68
2023-01-29T13:42:11.345Z,26.42
2023-01-29T13:44:38.166Z,25.88
2023-01-29T13:47:04.756Z,25.33
2023-01-29T13:49:31.283Z,26.23
2023-01-29T13:51:58.108Z,26.00
2023-01-29T13:54:25.008Z,24.60
2023-01-29T13:56:51.878Z,25.07
2023-01-29T13:59:18.654Z,24.53
2023-01-29T14:01:45.255Z,25.25
2023-01-29T14:04:12.042Z,25.68
2023-01-29T14:06:38.576Z,25.05
2023-01-29T14:09:05.180Z,24.41
2023-01-29T14:11:32.630Z,24.98
2023-01-29T14:16:49.250Z,25.04
2023-01-29T14:19:18.484Z,24.94
2023-01-29T14:21:47.074Z,25.11
2023-01-29T14:24:13.925Z,25.47
2023-01-29T14:26:43.588Z,27.81
2023-01-29T14:29:10.250Z,26.65
2023-01-29T14:31:36.879Z,25.85
2023-01-29T14:34:03.573Z,26.24
2023-01-29T14:36:30.087Z,26.20
2023-01-29T14:39:01.847Z,25.53
2023-01-29T14:41:32.917Z,24.87
2023-01-29T14:43:59.472Z,25.33
2023-01-29T14:46:26.308Z,25.12
2023-01-29T14:48:53.851Z,25.39
2023-01-29T14:51:20.516Z,24.95
2023-01-29T14:53:48.242Z,25.50
2023-01-29T14:56:14.814Z,25.58
2023-01-29T14:58:42.238Z,25.01
2023-01-29T15:01:08.981Z,25.92
2023-01-29T15:03:35.529Z,25.49
2023-01-29T15:06:03.687Z,24.93
2023-01-29T15:08:30.733Z,25.56
2023-01-29T15:10:57.638Z,25.52
2023-01-29T15:13:26.476Z,25.31
2023-01-29T15:15:54.125Z,26.15
2023-01-29T15:18:20.762Z,25.56
2023-01-29T15:20:49.714Z,26.10
2023-01-29T15:23:16.481Z,26.10
2023-01-29T15:25:45.461Z,25.95
2023-01-29T15:28:12.247Z,25.43
2023-01-29T15:30:39.205Z,26.56
2023-01-29T15:33:06.119Z,26.19
2023-01-29T15:35:34.911Z,26.30
2023-01-29T15:38:01.597Z,25.36
2023-01-29T15:40:28.111Z,26.66
2023-01-29T15:42:56.700Z,26.20
2023-01-29T15:45:23.863Z,26.03
2023-01-29T15:47:50.516Z,27.41
2023-01-29T15:50:17.268Z,25.90
2023-01-29T15:52:44.147Z,25.99
2023-01-29T15:55:10.924Z,26.39
2023-01-29T15:57:37.695Z,25.82
2023-01-29T16:00:04.290Z,25.68
2023-01-29T16:02:31.909Z,26.41
2023-01-29T16:04:58.721Z,26.21
2023-01-29T16:07:25.603Z,26.80
2023-01-29T16:09:52.656Z,26.63
2023-01-29T16:12:22.498Z,26.74
2023-01-29T16:14:49.647Z,26.65
2023-01-29T16:17:18.049Z,26.07
2023-01-29T16:19:49.119Z,26.41
2023-01-29T16:22:15.673Z,26.67
2023-01-29T16:24:42.294Z,26.58
2023-01-29T16:27:08.860Z,26.76
2023-01-29T16:29:35.861Z,26.50
2023-01-29T16:32:02.620Z,27.09
2023-01-29T16:34:29.623Z,27.22
2023-01-29T16:36:56.179Z,27.18
2023-01-29T16:39:23.272Z,26.25
2023-01-29T16:41:51.001Z,26.42
2023-01-29T16:44:17.602Z,27.60
2023-01-29T16:46:44.472Z,26.45
2023-01-29T16:49:12.088Z,25.94
2023-01-29T16:51:40.403Z,25.98
2023-01-29T16:54:07.003Z,26.77
2023-01-29T16:56:34.607Z,27.16
2023-01-29T16:59:13.821Z,27.02
2023-01-29T17:01:40.296Z,27.74
2023-01-29T17:04:07.750Z,27.50
2023-01-29T17:06:35.378Z,26.16
2023-01-29T17:09:01.991Z,26.64
2023-01-29T17:11:28.882Z,26.89
2023-01-29T17:13:56.551Z,26.61
2023-01-29T17:16:23.723Z,26.65
2023-01-29T17:18:50.405Z,26.72
2023-01-29T17:21:17.023Z,27.58
2023-01-29T17:23:44.423Z,27.75
2023-01-29T17:26:11.429Z,27.23
2023-01-29T17:28:38.123Z,26.27
2023-01-29T17:31:07.208Z,26.22
2023-01-29T17:39:36.163Z,27.20
2023-01-29T17:42:03.390Z,26.52
2023-01-29T17:44:31.024Z,26.34
2023-01-29T17:46:57.999Z,25.86
2023-01-29T17:49:24.653Z,25.12
2023-01-29T17:51:54.111Z,24.48
2023-01-29T17:54:20.968Z,24.73
2023-01-29T17:56:47.671Z,25.82
2023-01-29T17:59:16.942Z,25.24
2023-01-29T18:01:43.886Z,26.34
2023-01-29T18:04:15.315Z,25.85
2023-01-29T18:06:47.654Z,25.74
2023-01-29T18:09:14.291Z,25.87
2023-01-29T18:11:41.291Z,26.73
2023-01-29T18:14:14.527Z,25.99
2023-01-29T18:16:41.550Z,26.12
2023-01-29T18:19:08.465Z,26.77
2023-01-29T18:21:35.335Z,26.12
2023-01-29T18:24:02.927Z,25.33
2023-01-29T18:26:29.731Z,24.51
2023-01-29T18:28:56.631Z,25.36
2023-01-29T18:31:23.775Z,26.03
2023-01-29T18:33:54.391Z,27.37
2023-01-29T18:36:22.782Z,27.21
2023-01-29T18:38:49.939Z,27.97
2023-01-29T18:41:17.277Z,31.76
2023-01-29T18:43:43.958Z,34.24
2023-01-29T18:46:14.891Z,36.53
2023-01-29T18:48:43.008Z,36.49
2023-01-29T18:51:10.610Z,36.64
2023-01-29T18:53:38.448Z,36.92
2023-01-29T18:56:07.383Z,37.35
2023-01-29T18:58:39.595Z,36.77
2023-01-29T19:01:08.678Z,36.95
2023-01-29T19:03:35.734Z,38.23
2023-01-29T19:06:02.378Z,37.75
2023-01-29T19:08:29.236Z,36.57
2023-01-29T19:10:55.795Z,36.97
2023-01-29T19:13:22.654Z,38.29
2023-01-29T19:15:49.377Z,40.25
2023-01-29T19:18:16.257Z,40.49
2023-01-29T19:20:42.804Z,40.91
2023-01-29T19:23:09.422Z,39.25
2023-01-29T19:31:41.142Z,41.31
2023-01-29T19:34:07.764Z,38.35
2023-01-29T19:36:34.319Z,37.93
2023-01-29T19:39:01.082Z,46.37
2023-01-29T19:41:29.688Z,49.07
2023-01-29T19:43:56.514Z,46.70
2023-01-29T19:46:31.063Z,50.67
2023-01-29T19:48:59.798Z,48.30
2023-01-29T19:51:29.053Z,50.96
2023-01-29T19:53:55.682Z,50.80
2023-01-29T19:59:02.744Z,42.95
2023-01-29T20:01:30.109Z,41.95
2023-01-29T20:03:57.550Z,41.23
2023-01-29T20:06:24.198Z,37.44
2023-01-29T20:08:51.215Z,36.84
2023-01-29T20:11:18.481Z,36.51
2023-01-29T20:13:45.382Z,38.00
2023-01-29T20:16:13.687Z,40.77
2023-01-29T20:18:42.470Z,41.50
2023-01-29T20:21:09.248Z,38.86
2023-01-29T20:23:38.743Z,37.56
2023-01-29T20:26:07.604Z,35.92
2023-01-29T20:28:36.909Z,37.35
2023-01-29T20:31:03.868Z,40.12
2023-01-29T20:33:31.266Z,40.66
2023-01-29T20:35:57.878Z,38.59
2023-01-29T20:38:24.807Z,36.28
2023-01-29T20:40:51.647Z,36.42
2023-01-29T20:43:18.506Z,35.62
2023-01-29T20:54:31.818Z,41.07
2023-01-29T20:56:59.202Z,39.65
2023-01-29T20:59:25.746Z,37.28
2023-01-29T21:01:52.441Z,37.66
2023-01-29T21:04:19.024Z,36.79
2023-01-29T21:06:47.831Z,36.04
2023-01-29T21:09:14.377Z,36.73
2023-01-29T21:11:40.828Z,36.65
2023-01-29T21:14:09.098Z,38.60
2023-01-29T21:16:36.227Z,40.53
2023-01-29T21:19:03.539Z,39.00
2023-01-29T21:21:31.237Z,36.11
2023-01-29T21:23:57.915Z,36.90
2023-01-29T21:26:25.603Z,40.51
2023-01-29T21:28:52.535Z,44.13
2023-01-29T21:31:19.992Z,40.88
2023-01-29T21:33:46.844Z,40.11
2023-01-29T21:36:13.477Z,39.80
2023-01-29T21:38:40.095Z,39.30
2023-01-29T21:41:06.627Z,38.39
2023-01-29T21:43:33.150Z,37.06
2023-01-29T21:45:59.793Z,34.76
2023-01-29T21:51:41.630Z,34.05
2023-01-29T21:54:08.195Z,33.89
2023-01-29T21:56:35.007Z,36.78
2023-01-29T21:59:01.860Z,36.60
2023-01-29T22:01:37.979Z,35.20
2023-01-29T22:04:07.633Z,33.62
2023-01-29T22:06:34.536Z,33.12
2023-01-29T22:09:01.331Z,33.72
2023-01-29T22:11:28.361Z,32.64
2023-01-29T22:13:55.029Z,31.98
2023-01-29T22:16:23.261Z,31.84
2023-01-29T22:18:50.088Z,32.73
2023-01-29T22:21:16.617Z,31.98
2023-01-29T22:23:44.135Z,32.05
2023-01-29T22:26:10.727Z,32.08
2023-01-29T22:28:39.951Z,31.83
2023-01-29T22:31:08.745Z,32.18
2023-01-29T22:33:35.577Z,31.57
2023-01-29T22:36:02.149Z,32.15
2023-01-29T22:38:28.937Z,31.44
2023-01-29T22:40:56.024Z,30.49
2023-01-29T22:43:23.588Z,31.77
2023-01-29T22:45:50.437Z,30.98
2023-01-29T22:48:19.247Z,30.40
2023-01-29T22:50:46.108Z,31.41
2023-01-29T22:53:12.623Z,32.33
2023-01-29T22:55:45.131Z,30.83
2023-01-29T22:58:12.042Z,31.04
2023-01-29T23:00:39.534Z,31.22
2023-01-29T23:03:06.354Z,30.14
2023-01-29T23:05:33.093Z,30.73
2023-01-29T23:08:00.376Z,30.41
2023-01-29T23:10:27.233Z,30.38
2023-01-29T23:12:56.210Z,29.91
2023-01-29T23:15:23.037Z,28.83
2023-01-29T23:17:49.724Z,28.41
2023-01-29T23:20:16.944Z,29.52
2023-01-29T23:22:43.829Z,28.96
2023-01-29T23:25:12.857Z,28.22
2023-01-29T23:27:39.704Z,28.11
2023-01-29T23:30:08.520Z,27.85
2023-01-29T23:32:35.546Z,26.92
2023-01-29T23:35:02.101Z,27.93
2023-01-29T23:37:28.926Z,27.03
2023-01-29T23:39:55.434Z,27.79
2023-01-29T23:42:21.954Z,26.17
2023-01-29T23:44:48.765Z,25.55
2023-01-29T23:47:15.659Z,24.84
2023-01-29T23:49:42.526Z,25.02
2023-01-29T23:52:09.114Z,25.80
2023-01-29T23:54:35.794Z,25.88
2023-01-29T23:57:02.508Z,26.09
2023-01-29T23:59:29.373Z,26.59
